createdAt,value
2022-09-06T00:00:35.946Z,7.35
2022-09-06T00:05:41.418Z,5.25
2022-09-06T00:10:44.106Z,5.70
2022-09-06T00:15:47.108Z,5.70
2022-09-06T00:20:51.109Z,5.55
2022-09-06T00:25:53.861Z,5.32
2022-09-06T00:30:57.225Z,6.45
2022-09-06T00:36:01.704Z,5.95
2022-09-06T00:41:04.818Z,5.60
2022-09-06T00:46:09.610Z,5.00
2022-09-06T00:51:14.726Z,5.35
2022-09-06T00:56:17.434Z,5.60
2022-09-06T01:01:20.380Z,7.15
2022-09-06T01:06:27.350Z,5.80
2022-09-06T01:11:49.573Z,5.90
2022-09-06T01:16:58.434Z,6.05
2022-09-06T01:22:14.402Z,5.50
2022-09-06T01:27:50.076Z,5.75
2022-09-06T01:32:58.067Z,5.28
2022-09-06T01:38:01.164Z,4.82
2022-09-06T01:43:08.993Z,7.65
2022-09-06T01:48:28.905Z,6.35
2022-09-06T01:53:45.876Z,5.32
2022-09-06T01:59:12.427Z,6.57
2022-09-06T02:04:21.670Z,5.43
2022-09-06T02:09:26.941Z,6.05
2022-09-06T02:14:34.036Z,6.75
2022-09-06T02:19:41.044Z,5.90
2022-09-06T02:24:45.588Z,6.03
2022-09-06T02:29:48.364Z,5.22
2022-09-06T02:34:53.831Z,5.53
2022-09-06T02:39:56.704Z,6.75
2022-09-06T02:44:59.332Z,5.85
2022-09-06T02:50:03.407Z,5.45
2022-09-06T02:55:07.262Z,6.50
2022-09-06T03:00:11.458Z,5.63
2022-09-06T03:05:15.543Z,5.60
2022-09-06T03:10:20.476Z,5.43
2022-09-06T03:15:23.083Z,5.45
2022-09-06T03:20:27.250Z,5.18
2022-09-06T03:25:29.912Z,5.90
2022-09-06T03:30:32.745Z,5.80
2022-09-06T03:35:36.779Z,6.10
2022-09-06T03:40:39.492Z,5.20
2022-09-06T03:45:46.770Z,5.55
2022-09-06T03:50:52.756Z,5.82
2022-09-06T03:55:57.512Z,5.50
2022-09-06T04:01:05.577Z,7.38
2022-09-06T04:06:10.082Z,5.47
2022-09-06T04:11:12.746Z,7.07
2022-09-06T04:16:17.601Z,4.97
2022-09-06T04:21:21.739Z,8.55
2022-09-06T04:26:24.472Z,6.50
2022-09-06T04:31:27.469Z,7.97
2022-09-06T04:36:31.463Z,6.72
2022-09-06T04:41:34.118Z,5.95
2022-09-06T04:46:36.830Z,6.20
2022-09-06T04:51:40.955Z,5.10
2022-09-06T04:56:43.630Z,7.43
2022-09-06T05:01:46.305Z,5.40
2022-09-06T05:06:50.627Z,5.65
2022-09-06T05:11:53.641Z,5.10
2022-09-06T05:16:56.407Z,5.78
2022-09-06T05:22:00.441Z,5.93
2022-09-06T05:27:04.377Z,5.75
2022-09-06T05:32:07.458Z,5.85
2022-09-06T05:37:11.481Z,7.45
2022-09-06T05:42:19.015Z,4.78
2022-09-06T05:47:22.011Z,5.97
2022-09-06T05:52:25.994Z,5.88
2022-09-06T05:57:31.436Z,6.00
2022-09-06T06:02:34.130Z,5.85
2022-09-06T06:07:38.131Z,8.82
2022-09-06T06:12:40.802Z,6.30
2022-09-06T06:17:43.451Z,6.78
2022-09-06T06:22:47.406Z,5.90
2022-09-06T06:27:50.124Z,6.20
2022-09-06T06:32:52.767Z,8.88
2022-09-06T06:37:57.041Z,8.75
2022-09-06T06:43:00.399Z,6.35
2022-09-06T06:48:03.559Z,9.70
2022-09-06T06:53:07.540Z,10.18
2022-09-06T06:58:10.333Z,6.72
2022-09-06T07:03:14.017Z,8.35
2022-09-06T07:08:18.395Z,6.57
2022-09-06T07:13:21.173Z,6.80
2022-09-06T07:18:23.973Z,9.13
2022-09-06T07:28:53.296Z,5.88
2022-09-06T07:33:56.130Z,10.63
2022-09-06T07:39:00.360Z,9.05
2022-09-06T07:44:03.757Z,9.82
2022-09-06T07:49:06.791Z,8.57
2022-09-06T07:54:29.906Z,9.60
2022-09-06T07:59:33.395Z,6.22
2022-09-06T08:04:36.065Z,5.07
2022-09-06T08:09:40.112Z,5.88
2022-09-06T08:14:42.774Z,6.68
2022-09-06T08:19:45.449Z,5.32
2022-09-06T08:24:49.504Z,4.78
2022-09-06T08:29:52.351Z,5.60
2022-09-06T08:34:55.083Z,5.28
2022-09-06T08:39:59.312Z,6.10
2022-09-06T08:45:04.173Z,5.15
2022-09-06T08:50:08.437Z,4.78
2022-09-06T08:55:21.242Z,5.88
2022-09-06T09:00:24.063Z,7.43
2022-09-06T09:05:29.237Z,8.82
2022-09-06T09:10:41.915Z,6.60
2022-09-06T09:15:44.644Z,7.78
2022-09-06T09:20:47.294Z,7.93
2022-09-06T09:25:53.542Z,5.00
2022-09-06T09:30:57.791Z,5.18
2022-09-06T09:36:02.421Z,5.78
2022-09-06T09:41:08.042Z,4.95
2022-09-06T09:46:16.799Z,8.07
2022-09-06T09:51:26.609Z,4.80
2022-09-06T09:56:35.588Z,10.75
2022-09-06T10:01:39.642Z,4.97
2022-09-06T10:12:07.368Z,6.07
2022-09-06T10:17:19.465Z,6.05
2022-09-06T10:22:27.538Z,7.07
2022-09-06T10:27:33.136Z,5.10
2022-09-06T10:32:42.435Z,4.68
2022-09-06T10:38:04.531Z,5.10
2022-09-06T10:43:10.334Z,5.72
2022-09-06T10:48:18.120Z,4.28
2022-09-06T10:53:33.846Z,3.80
2022-09-06T11:04:12.775Z,5.95
2022-09-06T11:09:23.860Z,7.43
2022-09-06T11:14:28.730Z,4.72
2022-09-06T11:19:34.860Z,5.10
2022-09-06T11:24:48.716Z,7.78
2022-09-06T11:29:56.444Z,4.93
2022-09-06T11:35:00.827Z,4.80
2022-09-06T11:45:45.429Z,4.75
2022-09-06T11:51:03.295Z,4.72
2022-09-06T11:56:25.726Z,4.30
2022-09-06T12:01:38.266Z,4.20
2022-09-06T12:06:43.648Z,5.68
2022-09-06T12:11:48.568Z,6.43
2022-09-06T12:17:28.124Z,3.70
2022-09-06T12:23:02.199Z,4.30
2022-09-06T12:28:06.384Z,5.57
2022-09-06T12:33:13.928Z,5.93
2022-09-06T12:38:18.190Z,4.30
2022-09-06T12:43:21.097Z,2.83
2022-09-06T12:48:28.726Z,2.47
2022-09-06T12:53:34.398Z,5.10
2022-09-06T12:58:38.683Z,3.75
2022-09-06T13:03:45.169Z,3.90
2022-09-06T13:08:50.992Z,3.63
2022-09-06T13:13:55.121Z,2.47
2022-09-06T13:19:11.692Z,3.35
2022-09-06T13:24:23.025Z,2.33
2022-09-06T13:29:27.477Z,2.00
2022-09-06T13:34:32.117Z,2.28
2022-09-06T13:39:38.562Z,2.72
2022-09-06T13:44:41.394Z,2.85
2022-09-06T13:49:44.235Z,3.10
2022-09-06T13:54:48.748Z,1.77
2022-09-06T13:59:51.371Z,1.50
2022-09-06T14:04:54.026Z,1.50
2022-09-06T14:09:58.063Z,1.73
2022-09-06T14:15:00.891Z,2.92
2022-09-06T14:20:04.187Z,3.05
2022-09-06T14:25:09.437Z,3.17
2022-09-06T14:30:13.560Z,4.65
2022-09-06T14:35:16.358Z,3.45
2022-09-06T14:40:20.484Z,5.20
2022-09-06T14:45:23.238Z,4.18
2022-09-06T14:50:25.941Z,5.13
2022-09-06T14:55:30.723Z,5.50
2022-09-06T15:00:33.683Z,3.60
2022-09-06T15:05:36.511Z,2.50
2022-09-06T15:10:41.024Z,2.25
2022-09-06T15:15:44.127Z,2.40
2022-09-06T15:20:47.071Z,2.88
2022-09-06T15:25:52.310Z,2.83
2022-09-06T15:30:55.829Z,3.20
2022-09-06T15:36:00.521Z,3.88
2022-09-06T15:41:09.348Z,3.28
2022-09-06T15:46:12.316Z,2.85
2022-09-06T15:51:16.407Z,3.33
2022-09-06T15:56:20.642Z,2.38
2022-09-06T16:01:24.453Z,2.53
2022-09-06T16:06:28.637Z,2.88
2022-09-06T16:11:35.715Z,3.13
2022-09-06T16:16:40.523Z,3.20
2022-09-06T16:21:44.440Z,2.67
2022-09-06T16:26:48.584Z,3.15
2022-09-06T16:31:54.090Z,2.70
2022-09-06T16:36:57.087Z,2.33
2022-09-06T16:42:01.265Z,4.32
2022-09-06T16:47:04.578Z,2.72
2022-09-06T16:52:07.345Z,2.75
2022-09-06T16:57:11.417Z,3.08
2022-09-06T17:02:14.495Z,2.58
2022-09-06T17:07:17.821Z,3.80
2022-09-06T17:12:22.191Z,3.75
2022-09-06T17:17:24.885Z,2.40
2022-09-06T17:22:27.734Z,2.53
2022-09-06T17:27:32.089Z,4.30
2022-09-06T17:32:36.575Z,2.33
2022-09-06T17:37:39.332Z,4.25
2022-09-06T17:42:43.464Z,2.70
2022-09-06T17:47:46.197Z,2.88
2022-09-06T17:52:51.528Z,2.95
2022-09-06T17:57:56.084Z,2.80
2022-09-06T18:02:59.133Z,2.63
2022-09-06T18:08:02.247Z,2.75
2022-09-06T18:13:07.101Z,3.63
2022-09-06T18:18:10.059Z,4.85
2022-09-06T18:23:12.932Z,5.72
2022-09-06T18:28:17.119Z,5.18
2022-09-06T18:33:19.931Z,2.80
2022-09-06T18:38:22.778Z,3.60
2022-09-06T18:43:29.527Z,2.47
2022-09-06T18:48:33.706Z,3.03
2022-09-06T18:53:36.628Z,2.22
2022-09-06T18:58:41.036Z,3.20
2022-09-06T19:03:44.389Z,2.22
2022-09-06T19:08:47.838Z,4.47
2022-09-06T19:13:53.651Z,1.73
2022-09-06T19:18:57.369Z,2.03
2022-09-06T19:24:01.634Z,1.92
2022-09-06T19:29:09.118Z,2.22
2022-09-06T19:34:13.489Z,3.65
2022-09-06T19:39:17.482Z,2.22
2022-09-06T19:44:22.209Z,2.55
2022-09-06T19:49:25.154Z,3.10
2022-09-06T19:54:28.327Z,3.05
2022-09-06T19:59:33.448Z,4.05
2022-09-06T20:04:36.158Z,3.47
2022-09-06T20:09:38.947Z,4.38
2022-09-06T20:14:43.367Z,4.45
2022-09-06T20:19:46.223Z,5.40
2022-09-06T20:24:48.919Z,5.00
2022-09-06T20:29:53.021Z,4.50
2022-09-06T20:34:55.697Z,5.07
2022-09-06T20:39:58.490Z,5.57
2022-09-06T20:45:03.527Z,6.05
2022-09-06T20:50:07.172Z,5.68
2022-09-06T20:55:10.618Z,6.53
2022-09-06T21:00:15.948Z,7.15
2022-09-06T21:05:18.644Z,7.15
2022-09-06T21:10:21.373Z,6.57
2022-09-06T21:15:25.476Z,7.63
2022-09-06T21:20:28.239Z,9.02
2022-09-06T21:25:31.128Z,8.43
2022-09-06T21:30:35.507Z,7.97
2022-09-06T21:35:38.400Z,8.18
2022-09-06T21:40:41.185Z,10.60
2022-09-06T21:45:45.786Z,8.43
2022-09-06T21:50:49.020Z,7.95
2022-09-06T21:55:52.000Z,7.90
2022-09-06T22:00:59.190Z,7.63
2022-09-06T22:06:09.514Z,8.30
2022-09-06T22:11:14.469Z,8.18
2022-09-06T22:16:22.697Z,9.88
2022-09-06T22:21:25.683Z,10.43
2022-09-06T22:26:30.149Z,10.07
2022-09-06T22:31:35.172Z,10.95
2022-09-06T22:36:38.071Z,11.77
2022-09-06T22:41:40.861Z,12.18
2022-09-06T22:46:45.219Z,13.02
2022-09-06T22:51:48.131Z,13.93
2022-09-06T22:56:50.996Z,11.65
2022-09-06T23:01:55.072Z,14.68
2022-09-06T23:06:57.832Z,13.90
2022-09-06T23:12:01.250Z,15.93
2022-09-06T23:17:05.527Z,16.10
2022-09-06T23:22:08.270Z,15.25
2022-09-06T23:27:11.027Z,15.63
2022-09-06T23:32:15.144Z,13.48
2022-09-06T23:37:19.089Z,15.15
2022-09-06T23:42:22.994Z,15.18
2022-09-06T23:47:27.103Z,13.82
2022-09-06T23:52:29.917Z,14.07
2022-09-06T23:57:32.684Z,15.32
